• Join FlightAware (Why Join?)
  • Login
  • US Flag 
12:44PM EDT


 

Airport Tracker/Info


-or-


 

Live Flight TrackerFlight Track Log ✈ AWE339 ✈ 20-Apr-2013 ✈ MMSD / SJD - KPHX

Flight Track Log - Related Links

Times and Time Zones

All times are in EDT time to prevent confusion due to time zone crossing. See the AWE339 flight status page for this flight to view local times or setup timezone preferences in your user account.

Time Position Orientation Groundspeed Altitude Reporting Facility
EDT Latitude Longitude Course Direction KTS MPH feet Rate Location/Type
07:52PM 23.3662 -109.9911 313° West  Level FlightAware Approximate
07:53PM 23.4467 -110.0800 317° Northwest  Level FlightAware Approximate
07:54PM 23.5312 -110.1645 317° Northwest  Level FlightAware Approximate
07:55PM 23.6410 -110.1994 344° North  Level FlightAware Approximate
07:56PM 23.7514 -110.2330 344° North  Level FlightAware Approximate
07:57PM 23.8619 -110.2666 344° North  Level FlightAware Approximate
07:58PM 23.9733 -110.2959 349° North  Level FlightAware Approximate
07:59PM 24.0852 -110.3228 343° North  Level FlightAware Approximate
08:00PM 24.1974 -110.3475 351° North  Level FlightAware Approximate
08:01PM 24.3106 -110.3675 351° North  Level FlightAware Approximate
08:02PM 24.4238 -110.3873 351° North  Level FlightAware Approximate
08:03PM 24.5372 -110.4057 352° North  Level FlightAware Approximate
08:04PM 24.6507 -110.4231 352° North  Level FlightAware Approximate
08:05PM 24.7643 -110.4406 352° North  Level FlightAware Approximate
08:06PM 24.8778 -110.4581 352° North  Level FlightAware Approximate
08:07PM 24.9914 -110.4756 352° North  Level FlightAware Approximate
08:08PM 25.1049 -110.4930 352° North  Level FlightAware Approximate
08:09PM 25.2185 -110.5105 352° North  Level FlightAware Approximate
08:10PM 25.3320 -110.5280 352° North  Level FlightAware Approximate
08:11PM 25.4457 -110.5445 353° North  Level FlightAware Approximate
08:12PM 25.5594 -110.5606 353° North  Level FlightAware Approximate
08:13PM 25.6731 -110.5768 353° North  Level FlightAware Approximate
08:14PM 25.7869 -110.5930 353° North  Level FlightAware Approximate
08:15PM 25.9006 -110.6092 353° North  Level FlightAware Approximate
08:16PM 26.0143 -110.6254 353° North  Level FlightAware Approximate
08:17PM 26.1280 -110.6417 353° North  Level FlightAware Approximate
08:18PM 26.2417 -110.6580 353° North  Level FlightAware Approximate
08:19PM 26.3554 -110.6744 353° North  Level FlightAware Approximate
08:20PM 26.4691 -110.6907 353° North  Level FlightAware Approximate
08:21PM 26.5828 -110.7079 352° North  Level FlightAware Approximate
08:22PM 26.6963 -110.7260 352° North  Level FlightAware Approximate
08:23PM 26.8098 -110.7442 352° North  Level FlightAware Approximate
08:24PM 26.9233 -110.7624 352° North  Level FlightAware Approximate
08:25PM 27.0367 -110.7806 352° North  Level FlightAware Approximate
08:26PM 27.1502 -110.7989 352° North  Level FlightAware Approximate
08:27PM 27.2637 -110.8172 352° North  Level FlightAware Approximate
08:28PM 27.3772 -110.8355 352° North  Level FlightAware Approximate
08:29PM 27.4908 -110.8533 353° North  Level FlightAware Approximate
08:30PM 27.6046 -110.8690 353° North  Level FlightAware Approximate
08:31PM 27.7184 -110.8846 353° North  Level FlightAware Approximate
08:32PM 27.8322 -110.9004 353° North  Level FlightAware Approximate
08:33PM 27.9460 -110.9161 353° North  Level FlightAware Approximate
08:34PM 28.0602 -110.9279 355° North  Level FlightAware Approximate
08:35PM 28.1743 -110.9396 355° North  Level FlightAware Approximate
08:36PM 28.2885 -110.9513 355° North  Level FlightAware Approximate
08:37PM 28.4027 -110.9630 355° North  Level FlightAware Approximate
08:38PM 28.5169 -110.9747 355° North  Level FlightAware Approximate
08:39PM 28.6311 -110.9865 355° North  Level FlightAware Approximate
08:40PM 28.7453 -110.9983 355° North  Level FlightAware Approximate
08:41PM 28.8594 -111.0101 355° North  Level FlightAware Approximate
08:42PM 28.9736 -111.0219 355° North  Level FlightAware Approximate
08:43PM 29.0878 -111.0331 North  Level FlightAware Approximate
08:44PM 29.2024 -111.0282 North  Level FlightAware Approximate
08:45PM 29.3169 -111.0232 North  Level FlightAware Approximate
08:46PM 29.4315 -111.0182 North  Level FlightAware Approximate
08:47PM 29.5461 -111.0131 North  Level FlightAware Approximate
08:48PM 29.6607 -111.0081 North  Level FlightAware Approximate
08:49PM 29.7752 -111.0031 North  Level FlightAware Approximate
08:50PM 29.8898 -110.9980 North  Level FlightAware Approximate
08:51PM 30.0044 -110.9930 North  Level FlightAware Approximate
08:52PM 30.1189 -110.9879 North  Level FlightAware Approximate
08:53PM 30.2335 -110.9828 North  Level FlightAware Approximate
08:54PM 30.3481 -110.9777 North  Level FlightAware Approximate
08:55PM 30.4626 -110.9726 North  Level FlightAware Approximate
08:56PM 30.5772 -110.9675 North  Level FlightAware Approximate
08:57PM 30.6917 -110.9623 North  Level FlightAware Approximate
08:58PM 30.8063 -110.9572 North  Level FlightAware Approximate
08:59PM 30.9209 -110.9520 North  Level FlightAware Approximate
09:00PM 31.0354 -110.9468 North  Level FlightAware Approximate
09:00PM 30.6808 -110.9803 North 440 506 30,000  Level Albuquerque Center
09:01PM 31.1500 -110.9417 North  Level FlightAware Approximate
09:01PM 30.8028 -110.9744 North 439 505 30,000  Level Albuquerque Center
09:02PM 31.2645 -110.9365 North  Level FlightAware Approximate
09:02PM 30.9242 -110.9689 North 438 504 30,000  Level Albuquerque Center
09:03PM 31.3791 -110.9313 North  Level FlightAware Approximate
09:03PM 31.0400 -110.9633 North 424 488 30,000  Level Albuquerque Center
09:04PM 31.4937 -110.9262 North  Level FlightAware Approximate
09:04PM 31.1567 -110.9581 North 420 483 30,000  Level Albuquerque Center
09:05PM 31.6082 -110.9212 North  Level FlightAware Approximate
09:06PM 31.3894 -110.9469 North 419 482 30,000  Level Albuquerque Center
09:07PM 31.5044 -110.9419 North 418 481 30,000  Level Albuquerque Center
09:08PM 31.6197 -110.9356 North 415 478 30,000  Level Albuquerque Center
09:09PM 31.7364 -110.9339 North 410 472 30,000 -240 Level Albuquerque Center
09:10PM 31.8486 -110.9292 North 407 468 29,600 -900 Descending Albuquerque Center
09:11PM 31.9733 -110.9225 North 389 448 28,200 -1,620 Descending Albuquerque Center
09:12PM 32.0750 -110.9183 North 372 428 26,400 -1,500 Descending Albuquerque Center
09:13PM 32.1683 -110.9328 353° North 348 400 25,200 -1,140 Descending Albuquerque Center
09:14PM 32.2606 -110.9586 347° North 342 394 24,200 -600 Descending Albuquerque Center
09:15PM 32.3508 -110.9839 347° North 336 387 24,000 -300 Descending Albuquerque Center
09:16PM 32.4422 -111.0081 347° North 336 387 23,700 -600 Descending Albuquerque Center
09:17PM 32.5322 -111.0333 347° North 333 383 22,800 -960 Descending Albuquerque Center
09:18PM 32.6197 -111.0583 346° North 327 376 21,800 -1,020 Descending Albuquerque Center
09:19PM 32.7042 -111.0831 346° North 318 366 20,800 -1,320 Descending Albuquerque Center
09:20PM 32.7892 -111.1061 347° North 314 361 19,200 -1,680 Descending Albuquerque Center
09:21PM 32.8711 -111.1319 345° North 308 354 17,500 -1,860 Descending Albuquerque Center
09:22PM 32.9228 -111.2322 302° West 293 337 15,500 -1,680 Descending Albuquerque Center
09:23PM 32.9628 -111.3178 299° West 294 338 14,100 -1,260 Descending Albuquerque Center
09:24PM 33.0000 -111.4000 298° West 285 328 13,000 -1,260 Descending Albuquerque Center
09:25PM 33.0414 -111.4794 302° West 283 326 11,600 -1,440 Descending Albuquerque Center
09:26PM 33.0822 -111.5583 302° West 280 322 10,100 -1,200 Descending Albuquerque Center
09:27PM 33.1481 -111.5983 333° Northwest 264 304 9,200 -840 Descending Albuquerque Center
09:28PM 33.2069 -111.6319 334° Northwest 238 274 8,500 -1,020 Descending Albuquerque Center
09:29PM 33.2575 -111.6728 326° Northwest 221 254 7,200 -1,260 Descending Albuquerque Center
09:30PM 33.3083 -111.7153 325° Northwest 224 258 6,000 -1,140 Descending Albuquerque Center
09:31PM 33.3594 -111.7567 326° Northwest 222 255 4,900 -1,200 Descending Albuquerque Center
09:32PM 33.4003 -111.8100 313° West 232 267 3,600 -1,320 Descending Albuquerque Center